Eleonora E — MEDD4 — position and weather

sailwx.info

Track history (hours):
 
Tides and Currents Weather Stations Pressure Air Temp Water Temp Dewpoint Dewpoint Depression Visibility Wind Speed Wind Dir Waves Ship Positions

Eleonora E

Last reported at 2015-Sep-08 09:25 UTC. Time now 2016-Feb-07 10:39 UTC.
Position N 43°33' E 007°20'.
Warning: this ship's position is months out of date.

Length 41 m; draft 5.2 m.

Type: Sailing vessel. MMSI: 235008680.

Date/timePositionNaut miles runAvg speedWind from/ knotsBaromVisibWave heightAir tempDewpointWater temp
2015-Sep-08 09:25N 43°33' E 007°20'  
2015-Aug-31 13:33N 43°38' E 007°20'10 9.4
2015-Aug-31 12:28N 43°32' E 007°08'9 9.7
2015-Aug-31 11:32N 43°27' E 006°58'9 9.5
2015-Aug-31 10:33N 43°22' E 006°48'9 3.0
2015-Aug-31 07:33N 43°16' E 006°38'0 0.0
2015-Aug-31 06:33N 43°16' E 006°38'0 0.0
2015-Aug-31 05:30N 43°16' E 006°38'0 0.0
2015-Aug-31 04:33N 43°16' E 006°38'0 0.0
2015-Aug-31 03:32N 43°16' E 006°38'0 0.0
2015-Aug-31 02:33N 43°16' E 006°38'0 0.0
2015-Aug-31 01:33N 43°16' E 006°38'0 0.0
2015-Aug-31 00:33N 43°16' E 006°38'0 0.0
2015-Aug-30 23:33N 43°16' E 006°38'0 0.0
2015-Aug-30 22:33N 43°16' E 006°38'0 0.0
2015-Aug-30 21:33N 43°16' E 006°38'0 0.0
2015-Aug-30 20:33N 43°16' E 006°38'0 0.0
2015-Aug-30 19:33N 43°16' E 006°38'0 0.0
2015-Aug-30 18:33N 43°16' E 006°38'0 0.0
2015-Aug-30 17:33N 43°16' E 006°38'0 0.0
2015-Aug-30 16:27N 43°16' E 006°38'0 0.0
2015-Aug-30 15:32N 43°16' E 006°38'1 1.2
2015-Aug-30 14:33N 43°17' E 006°39'2 2.4
2015-Aug-30 13:33N 43°19' E 006°40'0 0.0
2015-Aug-30 12:33N 43°19' E 006°40'0 0.0
2015-Aug-30 11:33N 43°19' E 006°40'2 1.8
2015-Aug-30 10:33N 43°20' E 006°42'11 9.1
2015-Aug-30 09:24N 43°25' E 006°55'13 0.6
2015-Aug-29 11:29N 43°33' E 007°09'9 9.7
2015-Aug-29 10:33N 43°40' E 007°17'  
Track history (hours):
 
Tides and Currents Weather Stations Pressure Air Temp Water Temp Dewpoint Dewpoint Depression Visibility Wind Speed Wind Dir Waves Ship Positions

Eleonora E

Last reported at 2015-Sep-08 09:25 UTC. Time now 2016-Feb-07 10:39 UTC.
Position N 43°33' E 007°20'.
Warning: this ship's position is months out of date.

Length 41 m; draft 5.2 m.

Type: Sailing vessel. MMSI: 235008680.

Date/timePositionNaut miles runAvg speedWind from/ knotsBaromVisibWave heightAir tempDewpointWater temp
2015-Sep-08 09:25N 43°33' E 007°20'  
2015-Aug-31 13:33N 43°38' E 007°20'10 9.4
2015-Aug-31 12:28N 43°32' E 007°08'9 9.7
2015-Aug-31 11:32N 43°27' E 006°58'9 9.5
2015-Aug-31 10:33N 43°22' E 006°48'9 3.0
2015-Aug-31 07:33N 43°16' E 006°38'0 0.0
2015-Aug-31 06:33N 43°16' E 006°38'0 0.0
2015-Aug-31 05:30N 43°16' E 006°38'0 0.0
2015-Aug-31 04:33N 43°16' E 006°38'0 0.0
2015-Aug-31 03:32N 43°16' E 006°38'0 0.0
2015-Aug-31 02:33N 43°16' E 006°38'0 0.0
2015-Aug-31 01:33N 43°16' E 006°38'0 0.0
2015-Aug-31 00:33N 43°16' E 006°38'0 0.0
2015-Aug-30 23:33N 43°16' E 006°38'0 0.0
2015-Aug-30 22:33N 43°16' E 006°38'0 0.0
2015-Aug-30 21:33N 43°16' E 006°38'0 0.0
2015-Aug-30 20:33N 43°16' E 006°38'0 0.0
2015-Aug-30 19:33N 43°16' E 006°38'0 0.0
2015-Aug-30 18:33N 43°16' E 006°38'0 0.0
2015-Aug-30 17:33N 43°16' E 006°38'0 0.0
2015-Aug-30 16:27N 43°16' E 006°38'0 0.0
2015-Aug-30 15:32N 43°16' E 006°38'1 1.2
2015-Aug-30 14:33N 43°17' E 006°39'2 2.4
2015-Aug-30 13:33N 43°19' E 006°40'0 0.0
2015-Aug-30 12:33N 43°19' E 006°40'0 0.0
2015-Aug-30 11:33N 43°19' E 006°40'2 1.8
2015-Aug-30 10:33N 43°20' E 006°42'11 9.1
2015-Aug-30 09:24N 43°25' E 006°55'13 0.6
2015-Aug-29 11:29N 43°33' E 007°09'9 9.7
2015-Aug-29 10:33N 43°40' E 007°17'  

Dump ship's entire track history